Terminal Aerodrome Forecast
Issued by NWS Sterling, VA

Current Version | Previous Version | Graphics & Text | Print | Product List | Glossary On
Versions: 1 2 3 4 5 6 7 8 9 10 11 12 13 14 15 16 17 18 19 20 21 22 23 24 25 26 27
000
FTUS41 KLWX 290532
TAFDCA
TAF
KDCA 290532Z 2906/3006 23006KT P6SM FEW060
     FM291000 VRB03KT P6SM FEW250
     FM291400 25007KT P6SM FEW250
     FM292000 21007KT P6SM SCT250
     FM300200 16005KT P6SM BKN090=

USA.gov is the U.S. government's official web portal to all federal, state and local government web resources and services.